sensor_id;sensor_type;location;lat;lon;timestamp;temperature;humidity
23385;DHT22;11865;45.394;10.978;2023-05-07T00:01:06;18.20;99.90
23385;DHT22;11865;45.394;10.978;2023-05-07T00:03:34;18.20;99.90
23385;DHT22;11865;45.394;10.978;2023-05-07T00:06:02;18.10;99.90
23385;DHT22;11865;45.394;10.978;2023-05-07T00:08:29;17.90;99.90
23385;DHT22;11865;45.394;10.978;2023-05-07T00:10:57;17.90;99.90
23385;DHT22;11865;45.394;10.978;2023-05-07T00:13:24;17.50;99.90
23385;DHT22;11865;45.394;10.978;2023-05-07T00:15:51;17.60;99.90
23385;DHT22;11865;45.394;10.978;2023-05-07T00:18:19;17.80;99.90
23385;DHT22;11865;45.394;10.978;2023-05-07T00:20:49;18.00;99.90
23385;DHT22;11865;45.394;10.978;2023-05-07T00:23:17;18.10;99.90
23385;DHT22;11865;45.394;10.978;2023-05-07T00:25:44;18.20;99.90
23385;DHT22;11865;45.394;10.978;2023-05-07T00:28:11;18.30;99.90
23385;DHT22;11865;45.394;10.978;2023-05-07T00:30:39;18.20;99.90
23385;DHT22;11865;45.394;10.978;2023-05-07T00:33:06;18.20;99.90
23385;DHT22;11865;45.394;10.978;2023-05-07T00:35:34;18.30;99.90
23385;DHT22;11865;45.394;10.978;2023-05-07T00:38:01;18.40;99.90
23385;DHT22;11865;45.394;10.978;2023-05-07T00:40:29;18.20;99.90
23385;DHT22;11865;45.394;10.978;2023-05-07T00:42:56;18.30;99.90
23385;DHT22;11865;45.394;10.978;2023-05-07T00:45:29;18.30;99.90
23385;DHT22;11865;45.394;10.978;2023-05-07T00:48:00;18.30;99.90
23385;DHT22;11865;45.394;10.978;2023-05-07T00:50:28;18.30;99.90
23385;DHT22;11865;45.394;10.978;2023-05-07T00:52:57;18.20;99.90
23385;DHT22;11865;45.394;10.978;2023-05-07T00:55:25;18.20;99.90
23385;DHT22;11865;45.394;10.978;2023-05-07T00:57:52;18.30;99.90
23385;DHT22;11865;45.394;10.978;2023-05-07T01:00:20;18.10;99.90
23385;DHT22;11865;45.394;10.978;2023-05-07T01:02:48;18.10;99.90
23385;DHT22;11865;45.394;10.978;2023-05-07T01:05:17;18.30;99.90
23385;DHT22;11865;45.394;10.978;2023-05-07T01:07:46;18.20;99.90
23385;DHT22;11865;45.394;10.978;2023-05-07T01:10:15;18.10;99.90
23385;DHT22;11865;45.394;10.978;2023-05-07T01:12:43;18.00;99.90
23385;DHT22;11865;45.394;10.978;2023-05-07T01:15:11;18.20;99.90
23385;DHT22;11865;45.394;10.978;2023-05-07T01:17:40;18.10;99.90
23385;DHT22;11865;45.394;10.978;2023-05-07T01:20:13;18.00;99.90
23385;DHT22;11865;45.394;10.978;2023-05-07T01:22:43;18.20;99.90
23385;DHT22;11865;45.394;10.978;2023-05-07T01:25:10;18.20;99.90
23385;DHT22;11865;45.394;10.978;2023-05-07T01:27:42;18.10;99.90
23385;DHT22;11865;45.394;10.978;2023-05-07T01:30:10;18.10;99.90
23385;DHT22;11865;45.394;10.978;2023-05-07T01:32:51;17.90;99.90
23385;DHT22;11865;45.394;10.978;2023-05-07T01:35:21;17.90;99.90
23385;DHT22;11865;45.394;10.978;2023-05-07T01:37:49;17.90;99.90
23385;DHT22;11865;45.394;10.978;2023-05-07T01:40:17;17.70;99.90
23385;DHT22;11865;45.394;10.978;2023-05-07T01:42:45;17.60;99.90
23385;DHT22;11865;45.394;10.978;2023-05-07T01:45:13;17.20;99.90
23385;DHT22;11865;45.394;10.978;2023-05-07T01:47:41;17.10;99.90
23385;DHT22;11865;45.394;10.978;2023-05-07T01:50:09;16.90;99.90
23385;DHT22;11865;45.394;10.978;2023-05-07T01:52:38;16.80;99.90
23385;DHT22;11865;45.394;10.978;2023-05-07T01:55:06;16.70;99.90
23385;DHT22;11865;45.394;10.978;2023-05-07T01:57:34;16.50;99.90
23385;DHT22;11865;45.394;10.978;2023-05-07T02:00:02;16.50;99.90
23385;DHT22;11865;45.394;10.978;2023-05-07T02:02:41;16.40;99.90
23385;DHT22;11865;45.394;10.978;2023-05-07T02:05:19;16.40;99.90
23385;DHT22;11865;45.394;10.978;2023-05-07T02:15:15;15.90;99.90
23385;DHT22;11865;45.394;10.978;2023-05-07T02:17:59;15.90;99.90
23385;DHT22;11865;45.394;10.978;2023-05-07T02:20:28;15.70;99.90
23385;DHT22;11865;45.394;10.978;2023-05-07T02:22:55;15.60;99.90
23385;DHT22;11865;45.394;10.978;2023-05-07T02:27:54;15.70;99.90
23385;DHT22;11865;45.394;10.978;2023-05-07T02:30:26;15.70;99.90
23385;DHT22;11865;45.394;10.978;2023-05-07T02:32:56;15.70;99.90
23385;DHT22;11865;45.394;10.978;2023-05-07T02:35:25;15.50;99.90
23385;DHT22;11865;45.394;10.978;2023-05-07T02:37:52;15.40;99.90
23385;DHT22;11865;45.394;10.978;2023-05-07T02:40:21;15.30;99.90
23385;DHT22;11865;45.394;10.978;2023-05-07T02:42:48;15.30;99.90
23385;DHT22;11865;45.394;10.978;2023-05-07T02:47:44;15.20;99.90
23385;DHT22;11865;45.394;10.978;2023-05-07T02:50:11;15.20;99.90
23385;DHT22;11865;45.394;10.978;2023-05-07T02:52:39;15.30;99.90
23385;DHT22;11865;45.394;10.978;2023-05-07T02:55:07;15.40;99.90
23385;DHT22;11865;45.394;10.978;2023-05-07T02:57:35;15.30;99.90
23385;DHT22;11865;45.394;10.978;2023-05-07T03:00:16;15.20;99.90
23385;DHT22;11865;45.394;10.978;2023-05-07T03:03:00;15.10;99.90
23385;DHT22;11865;45.394;10.978;2023-05-07T03:05:28;15.10;99.90
23385;DHT22;11865;45.394;10.978;2023-05-07T03:07:56;15.20;99.90
23385;DHT22;11865;45.394;10.978;2023-05-07T03:10:23;15.20;99.90
23385;DHT22;11865;45.394;10.978;2023-05-07T03:12:50;15.10;99.90
23385;DHT22;11865;45.394;10.978;2023-05-07T03:15:18;15.10;99.90
23385;DHT22;11865;45.394;10.978;2023-05-07T03:17:45;15.00;99.90
23385;DHT22;11865;45.394;10.978;2023-05-07T03:20:13;14.90;99.90
23385;DHT22;11865;45.394;10.978;2023-05-07T03:22:41;14.90;99.90
23385;DHT22;11865;45.394;10.978;2023-05-07T03:25:09;14.80;99.90
23385;DHT22;11865;45.394;10.978;2023-05-07T03:27:37;14.80;99.90
23385;DHT22;11865;45.394;10.978;2023-05-07T03:30:06;14.70;99.90
23385;DHT22;11865;45.394;10.978;2023-05-07T03:32:35;14.70;99.90
23385;DHT22;11865;45.394;10.978;2023-05-07T03:35:07;14.70;99.90
23385;DHT22;11865;45.394;10.978;2023-05-07T03:37:35;14.60;99.90
23385;DHT22;11865;45.394;10.978;2023-05-07T03:40:02;14.60;99.90
23385;DHT22;11865;45.394;10.978;2023-05-07T03:42:35;14.60;99.90
23385;DHT22;11865;45.394;10.978;2023-05-07T03:45:03;14.50;99.90
23385;DHT22;11865;45.394;10.978;2023-05-07T03:47:30;14.50;99.90
23385;DHT22;11865;45.394;10.978;2023-05-07T03:49:58;14.50;99.90
23385;DHT22;11865;45.394;10.978;2023-05-07T03:52:26;14.50;99.90
23385;DHT22;11865;45.394;10.978;2023-05-07T03:54:57;14.50;99.90
23385;DHT22;11865;45.394;10.978;2023-05-07T03:57:24;14.60;99.90
23385;DHT22;11865;45.394;10.978;2023-05-07T03:59:52;14.70;99.90
23385;DHT22;11865;45.394;10.978;2023-05-07T04:02:19;14.70;99.90
23385;DHT22;11865;45.394;10.978;2023-05-07T04:04:48;14.70;99.90
23385;DHT22;11865;45.394;10.978;2023-05-07T04:07:16;14.80;99.90
23385;DHT22;11865;45.394;10.978;2023-05-07T04:09:48;14.90;99.90
23385;DHT22;11865;45.394;10.978;2023-05-07T04:12:16;15.00;99.90
23385;DHT22;11865;45.394;10.978;2023-05-07T04:14:43;15.00;99.90
23385;DHT22;11865;45.394;10.978;2023-05-07T04:17:12;15.00;99.90
23385;DHT22;11865;45.394;10.978;2023-05-07T04:19:40;15.00;99.90
23385;DHT22;11865;45.394;10.978;2023-05-07T04:22:12;14.90;99.90
23385;DHT22;11865;45.394;10.978;2023-05-07T04:24:40;14.90;99.90
23385;DHT22;11865;45.394;10.978;2023-05-07T04:27:07;15.00;99.90
23385;DHT22;11865;45.394;10.978;2023-05-07T04:29:35;15.10;99.90
23385;DHT22;11865;45.394;10.978;2023-05-07T04:32:02;15.40;99.90
23385;DHT22;11865;45.394;10.978;2023-05-07T04:34:29;15.60;99.90
23385;DHT22;11865;45.394;10.978;2023-05-07T04:36:59;15.60;99.90
23385;DHT22;11865;45.394;10.978;2023-05-07T04:39:26;15.80;99.90
23385;DHT22;11865;45.394;10.978;2023-05-07T04:41:54;15.80;99.90
23385;DHT22;11865;45.394;10.978;2023-05-07T04:44:23;16.00;99.90
23385;DHT22;11865;45.394;10.978;2023-05-07T04:46:50;15.90;99.90
23385;DHT22;11865;45.394;10.978;2023-05-07T04:49:18;15.80;99.90
23385;DHT22;11865;45.394;10.978;2023-05-07T04:51:45;15.90;99.90
23385;DHT22;11865;45.394;10.978;2023-05-07T04:54:15;16.10;99.90
23385;DHT22;11865;45.394;10.978;2023-05-07T04:56:43;16.40;99.90
23385;DHT22;11865;45.394;10.978;2023-05-07T04:59:11;16.50;99.90
23385;DHT22;11865;45.394;10.978;2023-05-07T05:01:38;16.70;99.90
23385;DHT22;11865;45.394;10.978;2023-05-07T05:04:06;16.70;99.90
23385;DHT22;11865;45.394;10.978;2023-05-07T05:06:34;16.70;99.90
23385;DHT22;11865;45.394;10.978;2023-05-07T05:09:04;16.80;99.90
23385;DHT22;11865;45.394;10.978;2023-05-07T05:11:33;16.90;99.90
23385;DHT22;11865;45.394;10.978;2023-05-07T05:14:00;17.10;99.90
23385;DHT22;11865;45.394;10.978;2023-05-07T05:16:29;17.10;99.90
23385;DHT22;11865;45.394;10.978;2023-05-07T05:18:56;17.20;99.90
23385;DHT22;11865;45.394;10.978;2023-05-07T05:21:24;17.30;99.90
23385;DHT22;11865;45.394;10.978;2023-05-07T05:23:57;17.40;99.90
23385;DHT22;11865;45.394;10.978;2023-05-07T05:26:25;17.50;99.90
23385;DHT22;11865;45.394;10.978;2023-05-07T05:28:53;17.60;99.90
23385;DHT22;11865;45.394;10.978;2023-05-07T05:31:23;18.20;99.90
23385;DHT22;11865;45.394;10.978;2023-05-07T05:33:51;18.90;99.90
23385;DHT22;11865;45.394;10.978;2023-05-07T05:36:18;19.60;99.90
23385;DHT22;11865;45.394;10.978;2023-05-07T05:38:47;20.40;99.70
23385;DHT22;11865;45.394;10.978;2023-05-07T05:41:16;20.50;98.70
23385;DHT22;11865;45.394;10.978;2023-05-07T05:43:44;21.00;98.30
23385;DHT22;11865;45.394;10.978;2023-05-07T05:46:11;21.40;97.50
23385;DHT22;11865;45.394;10.978;2023-05-07T05:48:39;21.80;96.80
23385;DHT22;11865;45.394;10.978;2023-05-07T05:51:07;21.60;96.40
23385;DHT22;11865;45.394;10.978;2023-05-07T05:53:35;22.10;95.00
23385;DHT22;11865;45.394;10.978;2023-05-07T05:56:03;22.10;93.80
23385;DHT22;11865;45.394;10.978;2023-05-07T05:58:32;23.00;94.30
23385;DHT22;11865;45.394;10.978;2023-05-07T06:01:02;23.10;93.80
23385;DHT22;11865;45.394;10.978;2023-05-07T06:03:31;23.40;93.40
23385;DHT22;11865;45.394;10.978;2023-05-07T06:06:03;23.60;93.20
23385;DHT22;11865;45.394;10.978;2023-05-07T06:08:31;23.90;92.00
23385;DHT22;11865;45.394;10.978;2023-05-07T06:10:59;23.80;93.10
23385;DHT22;11865;45.394;10.978;2023-05-07T06:13:30;23.80;91.30
23385;DHT22;11865;45.394;10.978;2023-05-07T06:15:57;24.50;91.60
23385;DHT22;11865;45.394;10.978;2023-05-07T06:18:25;24.50;90.00
23385;DHT22;11865;45.394;10.978;2023-05-07T06:20:53;24.90;90.40
23385;DHT22;11865;45.394;10.978;2023-05-07T06:23:25;25.00;91.10
23385;DHT22;11865;45.394;10.978;2023-05-07T06:25:53;24.40;90.20
23385;DHT22;11865;45.394;10.978;2023-05-07T06:28:24;24.50;89.40
23385;DHT22;11865;45.394;10.978;2023-05-07T06:30:52;25.20;88.10
23385;DHT22;11865;45.394;10.978;2023-05-07T06:33:19;25.30;90.20
23385;DHT22;11865;45.394;10.978;2023-05-07T06:35:47;25.20;90.60
23385;DHT22;11865;45.394;10.978;2023-05-07T06:38:14;24.80;90.90
23385;DHT22;11865;45.394;10.978;2023-05-07T06:40:43;24.80;90.80
23385;DHT22;11865;45.394;10.978;2023-05-07T06:43:11;25.10;90.60
23385;DHT22;11865;45.394;10.978;2023-05-07T06:45:47;25.20;91.40
23385;DHT22;11865;45.394;10.978;2023-05-07T06:48:15;24.00;91.70
23385;DHT22;11865;45.394;10.978;2023-05-07T06:50:50;23.70;92.80
23385;DHT22;11865;45.394;10.978;2023-05-07T06:53:18;23.00;93.70
23385;DHT22;11865;45.394;10.978;2023-05-07T06:55:46;22.90;93.90
23385;DHT22;11865;45.394;10.978;2023-05-07T06:58:14;23.30;94.20
23385;DHT22;11865;45.394;10.978;2023-05-07T07:00:42;23.90;93.70
23385;DHT22;11865;45.394;10.978;2023-05-07T07:03:10;23.80;92.80
23385;DHT22;11865;45.394;10.978;2023-05-07T07:05:41;23.70;93.00
23385;DHT22;11865;45.394;10.978;2023-05-07T07:08:09;23.40;93.80
23385;DHT22;11865;45.394;10.978;2023-05-07T07:10:38;23.30;93.70
23385;DHT22;11865;45.394;10.978;2023-05-07T07:13:05;23.10;93.80
23385;DHT22;11865;45.394;10.978;2023-05-07T07:15:33;24.10;93.10
23385;DHT22;11865;45.394;10.978;2023-05-07T07:18:00;24.00;94.50
23385;DHT22;11865;45.394;10.978;2023-05-07T07:20:28;24.40;92.80
23385;DHT22;11865;45.394;10.978;2023-05-07T07:22:55;25.00;92.80
23385;DHT22;11865;45.394;10.978;2023-05-07T07:25:23;25.60;91.30
23385;DHT22;11865;45.394;10.978;2023-05-07T07:27:51;25.80;90.90
23385;DHT22;11865;45.394;10.978;2023-05-07T07:30:19;26.50;90.80
23385;DHT22;11865;45.394;10.978;2023-05-07T07:32:48;26.30;87.70
23385;DHT22;11865;45.394;10.978;2023-05-07T07:35:16;26.10;86.70
23385;DHT22;11865;45.394;10.978;2023-05-07T07:37:44;25.50;90.20
23385;DHT22;11865;45.394;10.978;2023-05-07T07:40:14;26.00;89.80
23385;DHT22;11865;45.394;10.978;2023-05-07T07:42:41;25.30;90.10
23385;DHT22;11865;45.394;10.978;2023-05-07T07:45:09;24.90;92.10
23385;DHT22;11865;45.394;10.978;2023-05-07T07:47:41;25.20;90.70
23385;DHT22;11865;45.394;10.978;2023-05-07T07:50:09;26.50;89.10
23385;DHT22;11865;45.394;10.978;2023-05-07T07:52:37;27.10;88.80
23385;DHT22;11865;45.394;10.978;2023-05-07T07:55:06;26.50;84.70
23385;DHT22;11865;45.394;10.978;2023-05-07T07:57:34;25.30;89.70
23385;DHT22;11865;45.394;10.978;2023-05-07T08:00:02;25.20;91.20
23385;DHT22;11865;45.394;10.978;2023-05-07T08:02:31;25.10;89.10
23385;DHT22;11865;45.394;10.978;2023-05-07T08:04:59;24.10;91.90
23385;DHT22;11865;45.394;10.978;2023-05-07T08:07:26;24.40;91.90
23385;DHT22;11865;45.394;10.978;2023-05-07T08:09:54;24.80;89.90
23385;DHT22;11865;45.394;10.978;2023-05-07T08:12:23;24.90;90.90
23385;DHT22;11865;45.394;10.978;2023-05-07T08:14:51;24.20;91.20
23385;DHT22;11865;45.394;10.978;2023-05-07T08:17:19;24.10;90.60
23385;DHT22;11865;45.394;10.978;2023-05-07T08:19:50;24.50;91.70
23385;DHT22;11865;45.394;10.978;2023-05-07T08:22:18;24.50;90.50
23385;DHT22;11865;45.394;10.978;2023-05-07T08:24:47;24.60;87.20
23385;DHT22;11865;45.394;10.978;2023-05-07T08:27:15;24.50;90.10
23385;DHT22;11865;45.394;10.978;2023-05-07T08:29:42;24.50;90.70
23385;DHT22;11865;45.394;10.978;2023-05-07T08:32:15;24.60;89.10
23385;DHT22;11865;45.394;10.978;2023-05-07T08:34:43;24.80;84.50
23385;DHT22;11865;45.394;10.978;2023-05-07T08:37:10;24.80;84.40
23385;DHT22;11865;45.394;10.978;2023-05-07T08:39:38;24.70;83.50
23385;DHT22;11865;45.394;10.978;2023-05-07T08:42:11;25.20;84.20
23385;DHT22;11865;45.394;10.978;2023-05-07T08:44:40;25.50;86.10
23385;DHT22;11865;45.394;10.978;2023-05-07T08:47:10;24.90;87.60
23385;DHT22;11865;45.394;10.978;2023-05-07T08:49:38;25.20;89.90
23385;DHT22;11865;45.394;10.978;2023-05-07T08:52:07;25.10;89.00
23385;DHT22;11865;45.394;10.978;2023-05-07T08:54:37;24.70;86.10
23385;DHT22;11865;45.394;10.978;2023-05-07T08:57:08;24.90;89.50
23385;DHT22;11865;45.394;10.978;2023-05-07T08:59:36;25.10;90.30
23385;DHT22;11865;45.394;10.978;2023-05-07T09:02:07;25.40;86.00
23385;DHT22;11865;45.394;10.978;2023-05-07T09:04:36;25.20;84.30
23385;DHT22;11865;45.394;10.978;2023-05-07T09:07:04;25.10;80.40
23385;DHT22;11865;45.394;10.978;2023-05-07T09:09:36;25.40;84.00
23385;DHT22;11865;45.394;10.978;2023-05-07T09:12:05;25.10;77.50
23385;DHT22;11865;45.394;10.978;2023-05-07T09:14:34;25.40;78.90
23385;DHT22;11865;45.394;10.978;2023-05-07T09:17:02;25.20;79.00
23385;DHT22;11865;45.394;10.978;2023-05-07T09:19:30;25.30;80.20
23385;DHT22;11865;45.394;10.978;2023-05-07T09:22:02;25.10;79.50
23385;DHT22;11865;45.394;10.978;2023-05-07T09:24:39;25.10;81.20
23385;DHT22;11865;45.394;10.978;2023-05-07T09:27:09;25.20;81.50
23385;DHT22;11865;45.394;10.978;2023-05-07T09:29:43;25.40;84.00
23385;DHT22;11865;45.394;10.978;2023-05-07T09:32:12;25.70;81.50
23385;DHT22;11865;45.394;10.978;2023-05-07T09:34:41;25.80;84.90
23385;DHT22;11865;45.394;10.978;2023-05-07T09:37:12;25.70;86.00
23385;DHT22;11865;45.394;10.978;2023-05-07T09:39:44;25.60;86.20
23385;DHT22;11865;45.394;10.978;2023-05-07T09:42:13;25.90;86.30
23385;DHT22;11865;45.394;10.978;2023-05-07T09:44:47;26.10;83.60
23385;DHT22;11865;45.394;10.978;2023-05-07T09:47:20;26.50;84.40
23385;DHT22;11865;45.394;10.978;2023-05-07T09:49:56;26.50;82.10
23385;DHT22;11865;45.394;10.978;2023-05-07T09:52:25;26.50;82.90
23385;DHT22;11865;45.394;10.978;2023-05-07T09:54:57;26.10;81.90
23385;DHT22;11865;45.394;10.978;2023-05-07T09:57:28;26.40;82.20
23385;DHT22;11865;45.394;10.978;2023-05-07T10:00:02;26.30;82.80
23385;DHT22;11865;45.394;10.978;2023-05-07T10:02:51;26.20;84.70
23385;DHT22;11865;45.394;10.978;2023-05-07T10:05:27;26.40;84.20
23385;DHT22;11865;45.394;10.978;2023-05-07T10:07:57;26.20;86.50
23385;DHT22;11865;45.394;10.978;2023-05-07T10:10:26;26.40;81.70
23385;DHT22;11865;45.394;10.978;2023-05-07T10:12:55;26.40;82.50
23385;DHT22;11865;45.394;10.978;2023-05-07T10:15:30;26.30;83.60
23385;DHT22;11865;45.394;10.978;2023-05-07T10:17:59;26.40;85.00
23385;DHT22;11865;45.394;10.978;2023-05-07T10:20:28;26.60;81.20
23385;DHT22;11865;45.394;10.978;2023-05-07T10:22:57;26.30;82.30
23385;DHT22;11865;45.394;10.978;2023-05-07T10:25:33;26.40;84.50
23385;DHT22;11865;45.394;10.978;2023-05-07T10:28:08;26.50;79.60
23385;DHT22;11865;45.394;10.978;2023-05-07T10:33:45;26.20;79.30
23385;DHT22;11865;45.394;10.978;2023-05-07T10:36:15;25.90;79.70
23385;DHT22;11865;45.394;10.978;2023-05-07T10:38:43;25.80;79.90
23385;DHT22;11865;45.394;10.978;2023-05-07T10:41:11;25.90;82.00
23385;DHT22;11865;45.394;10.978;2023-05-07T10:43:43;25.90;84.20
23385;DHT22;11865;45.394;10.978;2023-05-07T10:46:22;25.60;85.70
23385;DHT22;11865;45.394;10.978;2023-05-07T10:49:08;25.90;83.00
23385;DHT22;11865;45.394;10.978;2023-05-07T10:51:44;26.00;81.50
23385;DHT22;11865;45.394;10.978;2023-05-07T10:54:23;25.40;82.40
23385;DHT22;11865;45.394;10.978;2023-05-07T10:57:33;25.80;83.30
23385;DHT22;11865;45.394;10.978;2023-05-07T11:03:09;26.30;78.70
23385;DHT22;11865;45.394;10.978;2023-05-07T11:06:16;26.00;78.70
23385;DHT22;11865;45.394;10.978;2023-05-07T11:08:55;26.30;81.50
23385;DHT22;11865;45.394;10.978;2023-05-07T11:11:51;26.40;78.60
23385;DHT22;11865;45.394;10.978;2023-05-07T11:17:20;26.20;84.00
23385;DHT22;11865;45.394;10.978;2023-05-07T11:19:56;26.50;84.10
23385;DHT22;11865;45.394;10.978;2023-05-07T11:22:38;26.60;83.40
23385;DHT22;11865;45.394;10.978;2023-05-07T11:25:18;25.70;83.40
23385;DHT22;11865;45.394;10.978;2023-05-07T11:27:51;25.60;82.50
23385;DHT22;11865;45.394;10.978;2023-05-07T11:30:19;25.80;79.40
23385;DHT22;11865;45.394;10.978;2023-05-07T11:32:48;25.80;78.50
23385;DHT22;11865;45.394;10.978;2023-05-07T11:35:17;25.80;84.20
23385;DHT22;11865;45.394;10.978;2023-05-07T11:37:48;26.10;83.00
23385;DHT22;11865;45.394;10.978;2023-05-07T11:40:16;26.20;81.10
23385;DHT22;11865;45.394;10.978;2023-05-07T11:42:43;26.30;80.70
23385;DHT22;11865;45.394;10.978;2023-05-07T11:45:11;26.10;79.50
23385;DHT22;11865;45.394;10.978;2023-05-07T11:47:41;26.10;80.40
23385;DHT22;11865;45.394;10.978;2023-05-07T11:50:10;26.00;79.90
23385;DHT22;11865;45.394;10.978;2023-05-07T11:52:38;25.90;83.20
23385;DHT22;11865;45.394;10.978;2023-05-07T11:55:07;26.10;83.40
23385;DHT22;11865;45.394;10.978;2023-05-07T11:57:35;25.90;77.40
23385;DHT22;11865;45.394;10.978;2023-05-07T12:00:03;25.90;83.80
23385;DHT22;11865;45.394;10.978;2023-05-07T12:02:41;26.30;80.80
23385;DHT22;11865;45.394;10.978;2023-05-07T12:05:09;26.40;77.70
23385;DHT22;11865;45.394;10.978;2023-05-07T12:07:37;26.40;81.70
23385;DHT22;11865;45.394;10.978;2023-05-07T12:10:05;26.30;81.00
23385;DHT22;11865;45.394;10.978;2023-05-07T12:12:40;26.20;78.10
23385;DHT22;11865;45.394;10.978;2023-05-07T12:15:09;26.40;80.10
23385;DHT22;11865;45.394;10.978;2023-05-07T12:17:38;26.20;78.10
23385;DHT22;11865;45.394;10.978;2023-05-07T12:20:06;26.40;82.50
23385;DHT22;11865;45.394;10.978;2023-05-07T12:22:34;26.70;78.60
23385;DHT22;11865;45.394;10.978;2023-05-07T12:25:02;26.30;80.80
23385;DHT22;11865;45.394;10.978;2023-05-07T12:27:30;26.30;76.50
23385;DHT22;11865;45.394;10.978;2023-05-07T12:29:58;26.40;75.80
23385;DHT22;11865;45.394;10.978;2023-05-07T12:32:26;26.50;74.80
23385;DHT22;11865;45.394;10.978;2023-05-07T12:34:54;26.60;75.20
23385;DHT22;11865;45.394;10.978;2023-05-07T12:37:25;26.60;77.30
23385;DHT22;11865;45.394;10.978;2023-05-07T12:40:06;26.60;82.30
23385;DHT22;11865;45.394;10.978;2023-05-07T12:42:39;26.60;78.60
23385;DHT22;11865;45.394;10.978;2023-05-07T12:45:15;26.30;80.60
23385;DHT22;11865;45.394;10.978;2023-05-07T12:47:47;26.30;81.10
23385;DHT22;11865;45.394;10.978;2023-05-07T12:50:16;26.60;77.70
23385;DHT22;11865;45.394;10.978;2023-05-07T12:52:45;26.50;78.00
23385;DHT22;11865;45.394;10.978;2023-05-07T12:55:14;26.40;74.90
23385;DHT22;11865;45.394;10.978;2023-05-07T12:57:48;26.30;75.30
23385;DHT22;11865;45.394;10.978;2023-05-07T13:00:16;26.40;75.60
23385;DHT22;11865;45.394;10.978;2023-05-07T13:02:45;26.40;79.80
23385;DHT22;11865;45.394;10.978;2023-05-07T13:05:13;26.50;81.30
23385;DHT22;11865;45.394;10.978;2023-05-07T13:07:40;26.80;78.60
23385;DHT22;11865;45.394;10.978;2023-05-07T13:10:19;26.80;76.80
23385;DHT22;11865;45.394;10.978;2023-05-07T13:12:46;27.00;76.60
23385;DHT22;11865;45.394;10.978;2023-05-07T13:15:14;26.90;78.90
23385;DHT22;11865;45.394;10.978;2023-05-07T13:17:41;26.60;77.30
23385;DHT22;11865;45.394;10.978;2023-05-07T13:20:10;26.40;78.10
23385;DHT22;11865;45.394;10.978;2023-05-07T13:22:39;26.30;77.40
23385;DHT22;11865;45.394;10.978;2023-05-07T13:25:07;26.40;76.80
23385;DHT22;11865;45.394;10.978;2023-05-07T13:27:35;26.60;80.30
23385;DHT22;11865;45.394;10.978;2023-05-07T13:30:04;26.90;79.30
23385;DHT22;11865;45.394;10.978;2023-05-07T13:32:32;26.90;78.10
23385;DHT22;11865;45.394;10.978;2023-05-07T13:35:00;26.70;79.60
23385;DHT22;11865;45.394;10.978;2023-05-07T13:37:27;26.50;78.50
23385;DHT22;11865;45.394;10.978;2023-05-07T13:39:55;26.70;77.50
23385;DHT22;11865;45.394;10.978;2023-05-07T13:42:22;26.60;77.40
23385;DHT22;11865;45.394;10.978;2023-05-07T13:44:50;26.60;77.90
23385;DHT22;11865;45.394;10.978;2023-05-07T13:47:17;26.80;82.50
23385;DHT22;11865;45.394;10.978;2023-05-07T13:49:45;27.10;78.00
23385;DHT22;11865;45.394;10.978;2023-05-07T13:52:12;27.10;79.90
23385;DHT22;11865;45.394;10.978;2023-05-07T13:54:40;27.10;78.50
23385;DHT22;11865;45.394;10.978;2023-05-07T13:57:07;27.20;76.60
23385;DHT22;11865;45.394;10.978;2023-05-07T13:59:35;27.00;78.60
23385;DHT22;11865;45.394;10.978;2023-05-07T14:02:02;27.00;77.90
23385;DHT22;11865;45.394;10.978;2023-05-07T14:04:30;27.10;77.80
23385;DHT22;11865;45.394;10.978;2023-05-07T14:06:58;27.00;77.60
23385;DHT22;11865;45.394;10.978;2023-05-07T14:09:25;26.80;79.50
23385;DHT22;11865;45.394;10.978;2023-05-07T14:11:53;26.80;74.60
23385;DHT22;11865;45.394;10.978;2023-05-07T14:14:20;26.80;79.60
23385;DHT22;11865;45.394;10.978;2023-05-07T14:16:47;26.80;78.10
23385;DHT22;11865;45.394;10.978;2023-05-07T14:19:17;26.50;78.20
23385;DHT22;11865;45.394;10.978;2023-05-07T14:21:44;26.30;80.40
23385;DHT22;11865;45.394;10.978;2023-05-07T14:24:12;26.40;79.10
23385;DHT22;11865;45.394;10.978;2023-05-07T14:26:39;26.50;80.00
23385;DHT22;11865;45.394;10.978;2023-05-07T14:29:07;26.60;77.90
23385;DHT22;11865;45.394;10.978;2023-05-07T14:31:34;26.50;81.30
23385;DHT22;11865;45.394;10.978;2023-05-07T14:34:02;26.50;78.20
23385;DHT22;11865;45.394;10.978;2023-05-07T14:36:29;26.30;78.80
23385;DHT22;11865;45.394;10.978;2023-05-07T14:38:58;26.40;78.90
23385;DHT22;11865;45.394;10.978;2023-05-07T14:41:26;26.20;76.40
23385;DHT22;11865;45.394;10.978;2023-05-07T14:43:54;26.20;81.80
23385;DHT22;11865;45.394;10.978;2023-05-07T14:46:22;26.50;79.00
23385;DHT22;11865;45.394;10.978;2023-05-07T14:48:49;26.30;76.20
23385;DHT22;11865;45.394;10.978;2023-05-07T14:51:17;26.20;76.00
23385;DHT22;11865;45.394;10.978;2023-05-07T14:53:44;26.60;79.50
23385;DHT22;11865;45.394;10.978;2023-05-07T14:56:12;26.90;78.50
23385;DHT22;11865;45.394;10.978;2023-05-07T14:58:39;27.10;78.30
23385;DHT22;11865;45.394;10.978;2023-05-07T15:01:07;27.00;77.60
23385;DHT22;11865;45.394;10.978;2023-05-07T15:03:34;27.10;78.20
23385;DHT22;11865;45.394;10.978;2023-05-07T15:06:02;26.80;78.00
23385;DHT22;11865;45.394;10.978;2023-05-07T15:08:30;26.80;77.60
23385;DHT22;11865;45.394;10.978;2023-05-07T15:10:57;26.90;78.00
23385;DHT22;11865;45.394;10.978;2023-05-07T15:13:25;26.90;79.00
23385;DHT22;11865;45.394;10.978;2023-05-07T15:15:52;26.70;77.50
23385;DHT22;11865;45.394;10.978;2023-05-07T15:18:20;27.00;77.30
23385;DHT22;11865;45.394;10.978;2023-05-07T15:20:49;27.10;80.10
23385;DHT22;11865;45.394;10.978;2023-05-07T15:23:16;26.70;78.00
23385;DHT22;11865;45.394;10.978;2023-05-07T15:25:47;26.80;78.40
23385;DHT22;11865;45.394;10.978;2023-05-07T15:28:18;27.00;80.00
23385;DHT22;11865;45.394;10.978;2023-05-07T15:30:46;27.10;79.00
23385;DHT22;11865;45.394;10.978;2023-05-07T15:33:13;26.80;78.30
23385;DHT22;11865;45.394;10.978;2023-05-07T15:35:41;26.80;81.70
23385;DHT22;11865;45.394;10.978;2023-05-07T15:38:09;26.70;79.10
23385;DHT22;11865;45.394;10.978;2023-05-07T15:40:36;26.80;79.10
23385;DHT22;11865;45.394;10.978;2023-05-07T15:43:09;27.00;80.10
23385;DHT22;11865;45.394;10.978;2023-05-07T15:45:41;27.10;78.40
23385;DHT22;11865;45.394;10.978;2023-05-07T15:48:09;27.20;77.80
23385;DHT22;11865;45.394;10.978;2023-05-07T15:50:37;27.00;75.00